Stations météo

Publicité
Edinburgh/Royal Botanic Garden , Grande-Bretagne (99180): Température de l'air & dewpoint: 25.09.2020 08:00:00 - 01.10.2020 08:00:00 (BST)Edinburgh/Royal Botanic Garden , Grande-Bretagne (99180): Température de l'air -20cm & Température de l'air -100cm: 25.09.2020 08:00:00 - 01.10.2020 08:00:00 (BST)Edinburgh/Royal Botanic Garden , Grande-Bretagne (99180): Quantités de précipitations: 25.09.2020 08:00:00 - 01.10.2020 08:00:00 (BST)
Date & Time tt [°C] td [°C] tt -20cm [°C] tt -100cm [°C] rr [mm]
01.10.2020 08:00:00 8,2 7,7 - - -
01.10.2020 07:00:00 8,0 7,5 - - 1,2
01.10.2020 06:00:00 8,1 7,5 - - 2,0
01.10.2020 05:00:00 8,3 7,8 - - -
01.10.2020 04:00:00 8,5 7,9 - - 1,0
01.10.2020 03:00:00 8,6 7,9 - - 2,2
01.10.2020 02:00:00 9,0 8,3 - - 1,8
01.10.2020 01:00:00 9,4 8,4 - - 0,6
01.10.2020 00:00:00 10,2 8,5 - - 0,0
30.09.2020 23:00:00 10,6 8,6 - - 0,0
30.09.2020 22:00:00 11,1 8,9 - - -
30.09.2020 21:00:00 11,4 9,2 - - 0,0
30.09.2020 20:00:00 12,2 10,1 - - -
30.09.2020 19:00:00 13,3 10,6 - - 0,0
30.09.2020 18:00:00 14,5 10,8 - - 0,0
30.09.2020 17:00:00 14,2 10,9 - - -
30.09.2020 16:00:00 14,2 10,4 - - -
30.09.2020 15:00:00 14,1 10,2 - - -
30.09.2020 14:00:00 13,5 10,1 - - -
30.09.2020 13:00:00 12,8 9,7 - - 0,0
30.09.2020 12:00:00 12,4 9,5 - - -
30.09.2020 11:00:00 12,4 9,2 - - -
30.09.2020 10:00:00 12,2 8,6 - - -
30.09.2020 09:00:00 11,7 7,9 - - 0,0
30.09.2020 08:00:00 11,1 7,7 - - -
30.09.2020 07:00:00 10,7 7,3 - - 0,0
30.09.2020 06:00:00 10,5 6,9 - - -
30.09.2020 05:00:00 9,3 6,6 - - 0,0
30.09.2020 04:00:00 8,9 6,4 - - 0,0
30.09.2020 03:00:00 8,5 6,0 - - 0,0
30.09.2020 02:00:00 8,6 6,4 - - 0,0
30.09.2020 01:00:00 7,0 5,6 - - 0,0
30.09.2020 00:00:00 7,8 6,0 - - 0,0
29.09.2020 23:00:00 7,3 5,3 - - 0,0
29.09.2020 22:00:00 8,3 5,6 - - 0,0
29.09.2020 21:00:00 8,7 5,8 - - -
29.09.2020 20:00:00 9,2 6,2 - - 0,0
29.09.2020 19:00:00 10,9 7,1 - - 0,0
29.09.2020 18:00:00 12,1 7,3 - - -
29.09.2020 17:00:00 13,8 7,4 - - 0,0
29.09.2020 16:00:00 13,9 8,0 - - 0,0
29.09.2020 15:00:00 14,8 7,6 - - -
29.09.2020 14:00:00 16,0 8,7 - - 0,0
29.09.2020 13:00:00 14,2 8,5 - - 0,0
29.09.2020 12:00:00 14,0 9,3 - - 0,0
29.09.2020 11:00:00 12,2 9,4 - - 0,0
29.09.2020 10:00:00 9,0 8,8 11,9 13,2 0,0
29.09.2020 09:00:00 6,4 6,1 - - 0,0
29.09.2020 08:00:00 5,0 4,7 - - 0,0
29.09.2020 07:00:00 4,6 4,2 - - 0,0
29.09.2020 06:00:00 4,9 4,5 - - 0,0
29.09.2020 05:00:00 5,2 4,6 - - 0,0
29.09.2020 04:00:00 5,6 5,0 - - 0,0
29.09.2020 03:00:00 6,9 6,3 - - 0,0
29.09.2020 02:00:00 6,6 5,7 - - 0,0
29.09.2020 01:00:00 8,2 7,2 - - 0,0
29.09.2020 00:00:00 8,1 7,3 - - -
28.09.2020 23:00:00 7,5 6,4 - - 0,0
28.09.2020 22:00:00 9,1 7,6 - - 0,0
28.09.2020 21:00:00 10,9 8,4 - - 0,0
28.09.2020 20:00:00 11,2 8,8 - - 0,0
28.09.2020 19:00:00 12,5 9,9 - - 0,0
28.09.2020 18:00:00 14,2 11,3 - - -
28.09.2020 17:00:00 14,0 12,0 - - -
28.09.2020 16:00:00 15,6 12,0 - - 0,0
28.09.2020 15:00:00 14,7 12,0 - - 0,0
28.09.2020 14:00:00 12,1 9,1 - - 0,0
28.09.2020 13:00:00 12,1 8,9 - - 0,0
28.09.2020 12:00:00 11,7 8,3 - - -
28.09.2020 11:00:00 10,8 7,9 - - 0,0
28.09.2020 10:00:00 9,3 7,4 11,9 13,5 0,0
28.09.2020 09:00:00 7,8 7,4 - - 0,0
28.09.2020 08:00:00 6,5 6,2 - - 0,0
28.09.2020 07:00:00 5,3 4,9 - - 0,0
28.09.2020 06:00:00 4,9 4,5 - - -
28.09.2020 05:00:00 4,6 4,1 - - 0,0
28.09.2020 04:00:00 4,4 3,9 - - 0,0
28.09.2020 03:00:00 4,8 4,3 - - 0,0
28.09.2020 02:00:00 4,7 4,2 - - 0,0
28.09.2020 01:00:00 4,5 4,1 - - 0,0
28.09.2020 00:00:00 4,1 3,6 - - 0,0
27.09.2020 23:00:00 4,3 3,6 - - 0,0
27.09.2020 22:00:00 5,1 4,3 - - 0,0
27.09.2020 21:00:00 5,3 4,1 - - -
27.09.2020 20:00:00 6,2 4,1 - - 0,0
27.09.2020 19:00:00 8,0 5,0 - - 0,0
27.09.2020 18:00:00 10,1 5,3 - - -
27.09.2020 17:00:00 11,5 4,4 - - -
27.09.2020 16:00:00 11,5 4,3 - - 0,0
27.09.2020 15:00:00 11,4 4,1 - - 0,0
27.09.2020 14:00:00 11,3 3,4 - - 0,0
27.09.2020 13:00:00 11,1 3,8 - - 0,0
27.09.2020 12:00:00 10,4 3,0 - - 0,0
27.09.2020 11:00:00 9,6 3,1 - - 0,0
27.09.2020 10:00:00 6,6 3,4 - - 0,0
27.09.2020 09:00:00 2,0 1,5 - - -
27.09.2020 08:00:00 0,1 -0,5 - - 0,0
27.09.2020 07:00:00 0,2 -0,4 - - 0,0
27.09.2020 06:00:00 1,0 0,4 - - 0,0
27.09.2020 05:00:00 1,3 0,6 - - 0,0
27.09.2020 04:00:00 1,6 0,8 - - 0,0
27.09.2020 03:00:00 2,2 1,2 - - 0,0
27.09.2020 02:00:00 3,4 2,3 - - 0,0
27.09.2020 01:00:00 3,6 2,4 - - 0,0
27.09.2020 00:00:00 4,6 2,8 - - 0,0
26.09.2020 23:00:00 6,3 3,1 - - 0,0
26.09.2020 22:00:00 7,7 3,3 - - 0,0
26.09.2020 21:00:00 10,1 3,6 - - 0,0
26.09.2020 20:00:00 10,8 3,8 - - 0,0
26.09.2020 19:00:00 11,6 4,2 - - 0,0
26.09.2020 18:00:00 13,0 4,0 - - 0,0
26.09.2020 17:00:00 13,9 4,3 - - -
26.09.2020 16:00:00 14,8 4,4 - - 0,0
26.09.2020 15:00:00 14,0 3,9 - - 0,0
26.09.2020 14:00:00 13,6 4,0 - - 0,0
26.09.2020 13:00:00 12,7 3,8 - - 0,0
26.09.2020 12:00:00 11,4 4,0 - - 0,0
26.09.2020 11:00:00 10,4 3,7 - - 0,0
26.09.2020 10:00:00 10,6 4,6 - - 0,0
26.09.2020 09:00:00 6,9 3,5 - - 0,0
26.09.2020 08:00:00 5,2 3,0 - - 0,0
26.09.2020 07:00:00 4,7 2,1 - - 0,0
26.09.2020 06:00:00 3,2 0,8 - - 0,0
26.09.2020 05:00:00 4,3 0,8 - - 0,0
26.09.2020 04:00:00 6,3 1,5 - - 0,0
26.09.2020 03:00:00 7,0 1,6 - - 0,0
26.09.2020 02:00:00 6,9 1,2 - - 0,0
26.09.2020 01:00:00 6,8 0,9 - - 0,0
26.09.2020 00:00:00 5,9 0,3 - - 0,0
25.09.2020 23:00:00 7,4 1,0 - - 0,0
25.09.2020 22:00:00 7,8 1,6 - - 0,0
25.09.2020 21:00:00 8,4 2,3 - - -
25.09.2020 20:00:00 8,8 2,0 - - 0,0
25.09.2020 19:00:00 10,9 2,4 - - 0,0
25.09.2020 18:00:00 11,9 2,9 - - -
25.09.2020 17:00:00 12,1 3,7 - - 0,0
25.09.2020 16:00:00 12,5 4,6 - - 0,0
25.09.2020 15:00:00 12,9 4,7 - - 0,0
25.09.2020 14:00:00 12,3 5,8 - - 0,0
25.09.2020 13:00:00 12,0 5,9 - - 0,0
25.09.2020 12:00:00 11,6 4,9 - - 0,0
25.09.2020 11:00:00 12,4 5,7 - - 0,0
25.09.2020 10:00:00 10,5 5,8 13,2 14,0 0,0
25.09.2020 09:00:00 9,2 5,1 - - 0,0
25.09.2020 08:00:00 8,4 4,7 - - -

tt = Température de l'air
td = dewpoint
tt -20cm = Température de l'air -20cm
tt -100cm = Température de l'air -100cm
rr = Quantités de précipitations

stations d'obs. à proximité